sensor_id;sensor_type;location;lat;lon;timestamp;P1;durP1;ratioP1;P2;durP2;ratioP2
35877;SDS011;21982;49.804;24.072;2024-01-11T00:01:47;59.93;;;28.60;;
35877;SDS011;21982;49.804;24.072;2024-01-11T00:04:12;55.40;;;28.63;;
35877;SDS011;21982;49.804;24.072;2024-01-11T00:06:44;65.63;;;27.07;;
35877;SDS011;21982;49.804;24.072;2024-01-11T00:09:10;57.27;;;28.63;;
35877;SDS011;21982;49.804;24.072;2024-01-11T00:11:35;49.57;;;25.23;;
35877;SDS011;21982;49.804;24.072;2024-01-11T00:14:01;51.33;;;23.77;;
35877;SDS011;21982;49.804;24.072;2024-01-11T00:16:26;48.23;;;23.10;;
35877;SDS011;21982;49.804;24.072;2024-01-11T00:18:51;51.60;;;21.90;;
35877;SDS011;21982;49.804;24.072;2024-01-11T00:21:17;44.27;;;22.40;;
35877;SDS011;21982;49.804;24.072;2024-01-11T00:23:42;49.07;;;22.90;;
35877;SDS011;21982;49.804;24.072;2024-01-11T00:26:08;42.43;;;21.40;;
35877;SDS011;21982;49.804;24.072;2024-01-11T00:28:33;50.73;;;23.17;;
35877;SDS011;21982;49.804;24.072;2024-01-11T00:30:59;46.87;;;21.00;;
35877;SDS011;21982;49.804;24.072;2024-01-11T00:33:24;42.57;;;19.50;;
35877;SDS011;21982;49.804;24.072;2024-01-11T00:35:49;39.30;;;19.27;;
35877;SDS011;21982;49.804;24.072;2024-01-11T00:38:15;41.13;;;19.97;;
35877;SDS011;21982;49.804;24.072;2024-01-11T00:40:40;41.77;;;20.33;;
35877;SDS011;21982;49.804;24.072;2024-01-11T00:43:06;54.23;;;21.83;;
35877;SDS011;21982;49.804;24.072;2024-01-11T00:45:31;43.73;;;19.67;;
35877;SDS011;21982;49.804;24.072;2024-01-11T00:47:56;37.53;;;20.10;;
35877;SDS011;21982;49.804;24.072;2024-01-11T00:50:22;45.47;;;22.60;;
35877;SDS011;21982;49.804;24.072;2024-01-11T00:52:47;41.77;;;20.67;;
35877;SDS011;21982;49.804;24.072;2024-01-11T00:55:12;45.33;;;20.17;;
35877;SDS011;21982;49.804;24.072;2024-01-11T00:57:38;44.50;;;19.83;;
35877;SDS011;21982;49.804;24.072;2024-01-11T01:00:03;45.63;;;21.53;;
35877;SDS011;21982;49.804;24.072;2024-01-11T01:02:29;44.50;;;20.73;;
35877;SDS011;21982;49.804;24.072;2024-01-11T01:04:55;45.77;;;21.30;;
35877;SDS011;21982;49.804;24.072;2024-01-11T01:07:20;46.57;;;20.77;;
35877;SDS011;21982;49.804;24.072;2024-01-11T01:09:46;45.33;;;22.00;;
35877;SDS011;21982;49.804;24.072;2024-01-11T01:12:11;40.07;;;20.23;;
35877;SDS011;21982;49.804;24.072;2024-01-11T01:14:36;48.67;;;23.40;;
35877;SDS011;21982;49.804;24.072;2024-01-11T01:17:02;39.17;;;20.80;;
35877;SDS011;21982;49.804;24.072;2024-01-11T01:19:27;49.33;;;22.73;;
35877;SDS011;21982;49.804;24.072;2024-01-11T01:21:53;41.63;;;19.97;;
35877;SDS011;21982;49.804;24.072;2024-01-11T01:24:18;45.10;;;20.40;;
35877;SDS011;21982;49.804;24.072;2024-01-11T01:26:44;46.07;;;20.83;;
35877;SDS011;21982;49.804;24.072;2024-01-11T01:29:09;42.97;;;21.17;;
35877;SDS011;21982;49.804;24.072;2024-01-11T01:31:35;45.30;;;22.10;;
35877;SDS011;21982;49.804;24.072;2024-01-11T01:34:03;36.33;;;20.40;;
35877;SDS011;21982;49.804;24.072;2024-01-11T01:36:29;45.37;;;18.80;;
35877;SDS011;21982;49.804;24.072;2024-01-11T01:38:54;45.27;;;19.40;;
35877;SDS011;21982;49.804;24.072;2024-01-11T01:41:19;41.97;;;16.93;;
35877;SDS011;21982;49.804;24.072;2024-01-11T01:43:45;43.43;;;21.47;;
35877;SDS011;21982;49.804;24.072;2024-01-11T01:46:12;39.03;;;19.17;;
35877;SDS011;21982;49.804;24.072;2024-01-11T01:48:44;35.47;;;18.67;;
35877;SDS011;21982;49.804;24.072;2024-01-11T01:51:09;39.90;;;18.80;;
35877;SDS011;21982;49.804;24.072;2024-01-11T01:53:35;36.73;;;17.90;;
35877;SDS011;21982;49.804;24.072;2024-01-11T01:56:01;38.53;;;19.10;;
35877;SDS011;21982;49.804;24.072;2024-01-11T01:58:27;35.03;;;19.33;;
35877;SDS011;21982;49.804;24.072;2024-01-11T02:00:54;38.07;;;17.40;;
35877;SDS011;21982;49.804;24.072;2024-01-11T02:03:19;35.47;;;18.23;;
35877;SDS011;21982;49.804;24.072;2024-01-11T02:05:45;30.00;;;16.30;;
35877;SDS011;21982;49.804;24.072;2024-01-11T02:08:12;35.47;;;17.10;;
35877;SDS011;21982;49.804;24.072;2024-01-11T02:10:42;39.23;;;20.00;;
35877;SDS011;21982;49.804;24.072;2024-01-11T02:13:08;29.30;;;16.10;;
35877;SDS011;21982;49.804;24.072;2024-01-11T02:15:34;31.17;;;15.03;;
35877;SDS011;21982;49.804;24.072;2024-01-11T02:18:00;35.20;;;15.70;;
35877;SDS011;21982;49.804;24.072;2024-01-11T02:20:25;30.70;;;16.70;;
35877;SDS011;21982;49.804;24.072;2024-01-11T02:22:52;36.70;;;16.97;;
35877;SDS011;21982;49.804;24.072;2024-01-11T02:25:21;32.27;;;15.77;;
35877;SDS011;21982;49.804;24.072;2024-01-11T02:27:49;34.23;;;14.77;;
35877;SDS011;21982;49.804;24.072;2024-01-11T02:30:16;28.37;;;15.27;;
35877;SDS011;21982;49.804;24.072;2024-01-11T02:32:43;29.30;;;15.87;;
35877;SDS011;21982;49.804;24.072;2024-01-11T02:35:11;32.47;;;15.37;;
35877;SDS011;21982;49.804;24.072;2024-01-11T02:37:38;36.60;;;14.17;;
35877;SDS011;21982;49.804;24.072;2024-01-11T02:40:06;36.40;;;14.23;;
35877;SDS011;21982;49.804;24.072;2024-01-11T02:42:33;30.00;;;15.07;;
35877;SDS011;21982;49.804;24.072;2024-01-11T02:44:59;27.37;;;15.70;;
35877;SDS011;21982;49.804;24.072;2024-01-11T02:47:25;33.87;;;14.83;;
35877;SDS011;21982;49.804;24.072;2024-01-11T02:49:51;33.20;;;14.93;;
35877;SDS011;21982;49.804;24.072;2024-01-11T02:52:16;27.00;;;14.57;;
35877;SDS011;21982;49.804;24.072;2024-01-11T02:54:42;29.40;;;14.17;;
35877;SDS011;21982;49.804;24.072;2024-01-11T02:57:07;28.87;;;12.40;;
35877;SDS011;21982;49.804;24.072;2024-01-11T02:59:33;29.70;;;14.23;;
35877;SDS011;21982;49.804;24.072;2024-01-11T03:01:58;29.57;;;14.00;;
35877;SDS011;21982;49.804;24.072;2024-01-11T03:04:23;29.17;;;15.27;;
35877;SDS011;21982;49.804;24.072;2024-01-11T03:06:49;28.30;;;13.53;;
35877;SDS011;21982;49.804;24.072;2024-01-11T03:09:14;26.37;;;12.77;;
35877;SDS011;21982;49.804;24.072;2024-01-11T03:11:39;26.07;;;14.37;;
35877;SDS011;21982;49.804;24.072;2024-01-11T03:14:05;34.87;;;14.63;;
35877;SDS011;21982;49.804;24.072;2024-01-11T03:16:31;25.13;;;11.77;;
35877;SDS011;21982;49.804;24.072;2024-01-11T03:18:57;31.53;;;14.03;;
35877;SDS011;21982;49.804;24.072;2024-01-11T03:21:22;30.70;;;14.13;;
35877;SDS011;21982;49.804;24.072;2024-01-11T03:23:48;28.27;;;14.57;;
35877;SDS011;21982;49.804;24.072;2024-01-11T03:26:14;26.67;;;13.30;;
35877;SDS011;21982;49.804;24.072;2024-01-11T03:28:40;25.77;;;12.50;;
35877;SDS011;21982;49.804;24.072;2024-01-11T03:31:10;25.00;;;12.87;;
35877;SDS011;21982;49.804;24.072;2024-01-11T03:33:36;27.37;;;12.67;;
35877;SDS011;21982;49.804;24.072;2024-01-11T03:36:11;26.67;;;12.83;;
35877;SDS011;21982;49.804;24.072;2024-01-11T03:41:02;33.17;;;13.57;;
35877;SDS011;21982;49.804;24.072;2024-01-11T03:43:34;29.83;;;12.87;;
35877;SDS011;21982;49.804;24.072;2024-01-11T03:45:59;31.07;;;13.30;;
35877;SDS011;21982;49.804;24.072;2024-01-11T03:48:24;36.83;;;12.57;;
35877;SDS011;21982;49.804;24.072;2024-01-11T03:50:51;26.90;;;13.00;;
35877;SDS011;21982;49.804;24.072;2024-01-11T03:53:17;28.23;;;12.57;;
35877;SDS011;21982;49.804;24.072;2024-01-11T03:55:42;27.97;;;11.73;;
35877;SDS011;21982;49.804;24.072;2024-01-11T03:58:07;28.27;;;12.40;;
35877;SDS011;21982;49.804;24.072;2024-01-11T04:00:33;25.23;;;11.97;;
35877;SDS011;21982;49.804;24.072;2024-01-11T04:02:58;27.73;;;13.70;;
35877;SDS011;21982;49.804;24.072;2024-01-11T04:05:24;26.40;;;12.03;;
35877;SDS011;21982;49.804;24.072;2024-01-11T04:07:49;23.20;;;12.40;;
35877;SDS011;21982;49.804;24.072;2024-01-11T04:10:15;28.77;;;14.13;;
35877;SDS011;21982;49.804;24.072;2024-01-11T04:12:42;28.17;;;12.93;;
35877;SDS011;21982;49.804;24.072;2024-01-11T04:15:08;24.70;;;12.27;;
35877;SDS011;21982;49.804;24.072;2024-01-11T04:17:33;29.60;;;12.30;;
35877;SDS011;21982;49.804;24.072;2024-01-11T04:19:59;28.37;;;13.37;;
35877;SDS011;21982;49.804;24.072;2024-01-11T04:22:24;27.03;;;13.23;;
35877;SDS011;21982;49.804;24.072;2024-01-11T04:24:50;25.83;;;14.37;;
35877;SDS011;21982;49.804;24.072;2024-01-11T04:27:15;20.07;;;11.07;;
35877;SDS011;21982;49.804;24.072;2024-01-11T04:29:41;30.73;;;12.37;;
35877;SDS011;21982;49.804;24.072;2024-01-11T04:32:06;22.97;;;12.07;;
35877;SDS011;21982;49.804;24.072;2024-01-11T04:34:32;22.47;;;11.67;;
35877;SDS011;21982;49.804;24.072;2024-01-11T04:36:57;23.13;;;11.63;;
35877;SDS011;21982;49.804;24.072;2024-01-11T04:39:22;22.97;;;11.13;;
35877;SDS011;21982;49.804;24.072;2024-01-11T04:41:48;30.70;;;11.07;;
35877;SDS011;21982;49.804;24.072;2024-01-11T04:44:13;28.67;;;12.33;;
35877;SDS011;21982;49.804;24.072;2024-01-11T04:46:39;23.10;;;12.10;;
35877;SDS011;21982;49.804;24.072;2024-01-11T04:49:04;25.33;;;12.40;;
35877;SDS011;21982;49.804;24.072;2024-01-11T04:51:30;28.97;;;12.30;;
35877;SDS011;21982;49.804;24.072;2024-01-11T04:53:55;23.77;;;12.67;;
35877;SDS011;21982;49.804;24.072;2024-01-11T04:56:21;23.03;;;11.40;;
35877;SDS011;21982;49.804;24.072;2024-01-11T04:58:47;24.40;;;11.37;;
35877;SDS011;21982;49.804;24.072;2024-01-11T05:01:13;23.60;;;10.43;;
35877;SDS011;21982;49.804;24.072;2024-01-11T05:03:42;21.63;;;10.93;;
35877;SDS011;21982;49.804;24.072;2024-01-11T05:06:14;21.33;;;11.50;;
35877;SDS011;21982;49.804;24.072;2024-01-11T05:08:44;23.60;;;11.18;;
35877;SDS011;21982;49.804;24.072;2024-01-11T05:13:42;26.17;;;11.63;;
35877;SDS011;21982;49.804;24.072;2024-01-11T05:16:16;25.57;;;10.93;;
35877;SDS011;21982;49.804;24.072;2024-01-11T05:18:45;25.00;;;9.87;;
35877;SDS011;21982;49.804;24.072;2024-01-11T05:21:11;23.20;;;11.03;;
35877;SDS011;21982;49.804;24.072;2024-01-11T05:23:37;25.23;;;13.37;;
35877;SDS011;21982;49.804;24.072;2024-01-11T05:26:02;24.03;;;10.60;;
35877;SDS011;21982;49.804;24.072;2024-01-11T05:28:29;20.60;;;10.23;;
35877;SDS011;21982;49.804;24.072;2024-01-11T05:30:54;20.00;;;10.70;;
35877;SDS011;21982;49.804;24.072;2024-01-11T05:33:20;22.03;;;11.47;;
35877;SDS011;21982;49.804;24.072;2024-01-11T05:35:45;23.43;;;10.57;;
35877;SDS011;21982;49.804;24.072;2024-01-11T05:38:11;23.57;;;10.87;;
35877;SDS011;21982;49.804;24.072;2024-01-11T05:40:36;24.47;;;11.53;;
35877;SDS011;21982;49.804;24.072;2024-01-11T05:43:02;25.23;;;13.80;;
35877;SDS011;21982;49.804;24.072;2024-01-11T05:45:28;22.27;;;12.03;;
35877;SDS011;21982;49.804;24.072;2024-01-11T05:47:53;31.10;;;18.40;;
35877;SDS011;21982;49.804;24.072;2024-01-11T05:50:19;23.87;;;11.93;;
35877;SDS011;21982;49.804;24.072;2024-01-11T05:52:44;26.20;;;12.53;;
35877;SDS011;21982;49.804;24.072;2024-01-11T05:55:10;28.40;;;11.23;;
35877;SDS011;21982;49.804;24.072;2024-01-11T05:57:37;24.53;;;10.80;;
35877;SDS011;21982;49.804;24.072;2024-01-11T06:00:03;24.53;;;10.60;;
35877;SDS011;21982;49.804;24.072;2024-01-11T06:02:30;19.90;;;9.77;;
35877;SDS011;21982;49.804;24.072;2024-01-11T06:04:56;16.97;;;8.83;;
35877;SDS011;21982;49.804;24.072;2024-01-11T06:07:22;25.00;;;10.37;;
35877;SDS011;21982;49.804;24.072;2024-01-11T06:09:48;20.13;;;10.13;;
35877;SDS011;21982;49.804;24.072;2024-01-11T06:12:14;26.23;;;12.80;;
35877;SDS011;21982;49.804;24.072;2024-01-11T06:14:39;21.60;;;10.40;;
35877;SDS011;21982;49.804;24.072;2024-01-11T06:17:06;21.27;;;9.23;;
35877;SDS011;21982;49.804;24.072;2024-01-11T06:19:32;28.00;;;12.87;;
35877;SDS011;21982;49.804;24.072;2024-01-11T06:21:57;23.73;;;10.47;;
35877;SDS011;21982;49.804;24.072;2024-01-11T06:24:23;21.37;;;11.07;;
35877;SDS011;21982;49.804;24.072;2024-01-11T06:26:48;23.97;;;11.00;;
35877;SDS011;21982;49.804;24.072;2024-01-11T06:29:13;26.80;;;11.30;;
35877;SDS011;21982;49.804;24.072;2024-01-11T06:31:39;23.40;;;11.87;;
35877;SDS011;21982;49.804;24.072;2024-01-11T06:34:04;24.80;;;10.03;;
35877;SDS011;21982;49.804;24.072;2024-01-11T06:36:30;22.23;;;9.53;;
35877;SDS011;21982;49.804;24.072;2024-01-11T06:38:55;21.93;;;10.47;;
35877;SDS011;21982;49.804;24.072;2024-01-11T06:41:20;20.77;;;10.83;;
35877;SDS011;21982;49.804;24.072;2024-01-11T06:43:46;20.97;;;10.30;;
35877;SDS011;21982;49.804;24.072;2024-01-11T06:46:11;21.50;;;9.87;;
35877;SDS011;21982;49.804;24.072;2024-01-11T06:48:37;25.63;;;11.87;;
35877;SDS011;21982;49.804;24.072;2024-01-11T06:51:03;25.10;;;11.07;;
35877;SDS011;21982;49.804;24.072;2024-01-11T06:53:28;21.00;;;9.63;;
35877;SDS011;21982;49.804;24.072;2024-01-11T06:55:54;21.00;;;9.77;;
35877;SDS011;21982;49.804;24.072;2024-01-11T06:58:22;21.50;;;9.73;;
35877;SDS011;21982;49.804;24.072;2024-01-11T07:00:51;22.77;;;11.10;;
35877;SDS011;21982;49.804;24.072;2024-01-11T07:03:17;23.53;;;12.27;;
35877;SDS011;21982;49.804;24.072;2024-01-11T07:05:43;22.50;;;12.17;;
35877;SDS011;21982;49.804;24.072;2024-01-11T07:08:08;22.77;;;11.27;;
35877;SDS011;21982;49.804;24.072;2024-01-11T07:10:34;19.73;;;11.83;;
35877;SDS011;21982;49.804;24.072;2024-01-11T07:12:59;26.03;;;10.60;;
35877;SDS011;21982;49.804;24.072;2024-01-11T07:15:25;25.70;;;10.93;;
35877;SDS011;21982;49.804;24.072;2024-01-11T07:17:50;24.30;;;10.47;;
35877;SDS011;21982;49.804;24.072;2024-01-11T07:20:15;21.60;;;9.73;;
35877;SDS011;21982;49.804;24.072;2024-01-11T07:22:42;29.33;;;11.17;;
35877;SDS011;21982;49.804;24.072;2024-01-11T07:25:07;28.17;;;14.10;;
35877;SDS011;21982;49.804;24.072;2024-01-11T07:27:33;24.57;;;12.33;;
35877;SDS011;21982;49.804;24.072;2024-01-11T07:30:00;32.63;;;14.20;;
35877;SDS011;21982;49.804;24.072;2024-01-11T07:32:27;27.60;;;13.37;;
35877;SDS011;21982;49.804;24.072;2024-01-11T07:34:52;34.57;;;14.83;;
35877;SDS011;21982;49.804;24.072;2024-01-11T07:37:18;34.83;;;16.33;;
35877;SDS011;21982;49.804;24.072;2024-01-11T07:39:43;31.40;;;14.13;;
35877;SDS011;21982;49.804;24.072;2024-01-11T07:42:09;27.10;;;12.33;;
35877;SDS011;21982;49.804;24.072;2024-01-11T07:44:34;31.23;;;13.07;;
35877;SDS011;21982;49.804;24.072;2024-01-11T07:46:59;27.60;;;12.20;;
35877;SDS011;21982;49.804;24.072;2024-01-11T07:49:25;29.03;;;11.43;;
35877;SDS011;21982;49.804;24.072;2024-01-11T07:51:51;22.10;;;11.23;;
35877;SDS011;21982;49.804;24.072;2024-01-11T07:54:16;22.73;;;11.40;;
35877;SDS011;21982;49.804;24.072;2024-01-11T07:56:42;26.00;;;13.00;;
35877;SDS011;21982;49.804;24.072;2024-01-11T07:59:07;26.70;;;14.43;;
35877;SDS011;21982;49.804;24.072;2024-01-11T08:01:33;26.43;;;13.57;;
35877;SDS011;21982;49.804;24.072;2024-01-11T08:04:00;30.83;;;13.20;;
35877;SDS011;21982;49.804;24.072;2024-01-11T08:06:27;25.10;;;12.67;;
35877;SDS011;21982;49.804;24.072;2024-01-11T08:08:53;25.90;;;11.17;;
35877;SDS011;21982;49.804;24.072;2024-01-11T08:11:18;26.53;;;11.70;;
35877;SDS011;21982;49.804;24.072;2024-01-11T08:13:44;22.27;;;11.10;;
35877;SDS011;21982;49.804;24.072;2024-01-11T08:16:14;23.63;;;11.47;;
35877;SDS011;21982;49.804;24.072;2024-01-11T08:18:43;23.13;;;12.07;;
35877;SDS011;21982;49.804;24.072;2024-01-11T08:21:09;25.60;;;13.63;;
35877;SDS011;21982;49.804;24.072;2024-01-11T08:23:36;25.73;;;11.60;;
35877;SDS011;21982;49.804;24.072;2024-01-11T08:26:05;22.93;;;11.17;;
35877;SDS011;21982;49.804;24.072;2024-01-11T08:28:31;22.13;;;10.83;;
35877;SDS011;21982;49.804;24.072;2024-01-11T08:30:57;25.13;;;12.87;;
35877;SDS011;21982;49.804;24.072;2024-01-11T08:33:22;27.33;;;12.13;;
35877;SDS011;21982;49.804;24.072;2024-01-11T08:35:48;30.80;;;12.30;;
35877;SDS011;21982;49.804;24.072;2024-01-11T08:38:14;20.63;;;10.60;;
35877;SDS011;21982;49.804;24.072;2024-01-11T08:40:40;20.00;;;11.23;;
35877;SDS011;21982;49.804;24.072;2024-01-11T08:43:05;26.67;;;12.30;;
35877;SDS011;21982;49.804;24.072;2024-01-11T08:45:31;22.50;;;11.27;;
35877;SDS011;21982;49.804;24.072;2024-01-11T08:47:57;20.97;;;10.47;;
35877;SDS011;21982;49.804;24.072;2024-01-11T08:50:22;23.20;;;11.10;;
35877;SDS011;21982;49.804;24.072;2024-01-11T08:52:48;24.38;;;11.57;;
35877;SDS011;21982;49.804;24.072;2024-01-11T08:55:13;21.10;;;11.27;;
35877;SDS011;21982;49.804;24.072;2024-01-11T08:57:39;24.10;;;12.27;;
35877;SDS011;21982;49.804;24.072;2024-01-11T09:00:04;21.23;;;10.47;;
35877;SDS011;21982;49.804;24.072;2024-01-11T09:02:33;24.47;;;10.67;;
35877;SDS011;21982;49.804;24.072;2024-01-11T09:05:00;22.02;;;9.52;;
35877;SDS011;21982;49.804;24.072;2024-01-11T09:07:32;22.67;;;11.80;;
35877;SDS011;21982;49.804;24.072;2024-01-11T09:09:57;22.67;;;9.73;;
35877;SDS011;21982;49.804;24.072;2024-01-11T09:12:26;22.70;;;11.50;;
35877;SDS011;21982;49.804;24.072;2024-01-11T09:14:52;24.80;;;11.77;;
35877;SDS011;21982;49.804;24.072;2024-01-11T09:17:20;25.70;;;10.90;;
35877;SDS011;21982;49.804;24.072;2024-01-11T09:19:46;26.35;;;12.55;;
35877;SDS011;21982;49.804;24.072;2024-01-11T09:22:13;33.30;;;15.88;;
35877;SDS011;21982;49.804;24.072;2024-01-11T09:24:38;27.23;;;11.85;;
35877;SDS011;21982;49.804;24.072;2024-01-11T09:27:04;23.35;;;10.57;;
35877;SDS011;21982;49.804;24.072;2024-01-11T09:29:30;21.95;;;10.82;;
35877;SDS011;21982;49.804;24.072;2024-01-11T09:31:55;22.50;;;11.13;;
35877;SDS011;21982;49.804;24.072;2024-01-11T09:34:21;24.88;;;11.70;;
35877;SDS011;21982;49.804;24.072;2024-01-11T09:36:46;20.30;;;11.10;;
35877;SDS011;21982;49.804;24.072;2024-01-11T09:39:11;22.27;;;10.48;;
35877;SDS011;21982;49.804;24.072;2024-01-11T09:41:41;26.20;;;12.18;;
35877;SDS011;21982;49.804;24.072;2024-01-11T09:44:12;19.17;;;10.45;;
35877;SDS011;21982;49.804;24.072;2024-01-11T09:46:38;23.55;;;10.68;;
35877;SDS011;21982;49.804;24.072;2024-01-11T09:49:04;21.85;;;10.23;;
35877;SDS011;21982;49.804;24.072;2024-01-11T09:51:30;21.90;;;10.93;;
35877;SDS011;21982;49.804;24.072;2024-01-11T09:53:59;24.98;;;11.98;;
35877;SDS011;21982;49.804;24.072;2024-01-11T09:56:25;22.23;;;11.55;;
35877;SDS011;21982;49.804;24.072;2024-01-11T09:58:52;28.70;;;14.00;;
35877;SDS011;21982;49.804;24.072;2024-01-11T10:01:19;24.47;;;11.40;;
35877;SDS011;21982;49.804;24.072;2024-01-11T10:03:46;20.87;;;9.70;;
35877;SDS011;21982;49.804;24.072;2024-01-11T10:06:11;21.50;;;10.98;;
35877;SDS011;21982;49.804;24.072;2024-01-11T10:08:37;22.33;;;11.77;;
35877;SDS011;21982;49.804;24.072;2024-01-11T10:11:03;25.23;;;13.00;;
35877;SDS011;21982;49.804;24.072;2024-01-11T10:13:31;23.77;;;11.53;;
35877;SDS011;21982;49.804;24.072;2024-01-11T10:16:10;23.13;;;11.10;;
35877;SDS011;21982;49.804;24.072;2024-01-11T10:18:44;23.30;;;11.83;;
35877;SDS011;21982;49.804;24.072;2024-01-11T10:21:13;27.50;;;13.70;;
35877;SDS011;21982;49.804;24.072;2024-01-11T10:23:39;32.50;;;13.73;;
35877;SDS011;21982;49.804;24.072;2024-01-11T10:26:05;22.20;;;12.50;;
35877;SDS011;21982;49.804;24.072;2024-01-11T10:28:32;34.20;;;13.87;;
35877;SDS011;21982;49.804;24.072;2024-01-11T10:31:02;26.97;;;13.40;;
35877;SDS011;21982;49.804;24.072;2024-01-11T10:33:29;25.35;;;13.25;;
35877;SDS011;21982;49.804;24.072;2024-01-11T10:35:54;25.37;;;14.60;;
35877;SDS011;21982;49.804;24.072;2024-01-11T10:38:20;28.87;;;15.00;;
35877;SDS011;21982;49.804;24.072;2024-01-11T10:40:47;33.63;;;16.97;;
35877;SDS011;21982;49.804;24.072;2024-01-11T10:43:14;31.07;;;14.00;;
35877;SDS011;21982;49.804;24.072;2024-01-11T10:45:46;24.05;;;14.80;;
35877;SDS011;21982;49.804;24.072;2024-01-11T10:48:14;25.95;;;13.45;;
35877;SDS011;21982;49.804;24.072;2024-01-11T10:50:42;29.63;;;13.73;;
35877;SDS011;21982;49.804;24.072;2024-01-11T10:53:12;29.60;;;14.05;;
35877;SDS011;21982;49.804;24.072;2024-01-11T10:58:10;31.03;;;14.47;;
35877;SDS011;21982;49.804;24.072;2024-01-11T11:00:36;37.65;;;18.35;;
35877;SDS011;21982;49.804;24.072;2024-01-11T11:03:02;35.53;;;15.33;;
35877;SDS011;21982;49.804;24.072;2024-01-11T11:05:31;33.97;;;16.37;;
35877;SDS011;21982;49.804;24.072;2024-01-11T11:08:00;35.50;;;17.03;;
35877;SDS011;21982;49.804;24.072;2024-01-11T11:10:27;36.93;;;18.47;;
35877;SDS011;21982;49.804;24.072;2024-01-11T11:12:54;34.00;;;17.95;;
35877;SDS011;21982;49.804;24.072;2024-01-11T11:15:24;37.37;;;16.53;;
35877;SDS011;21982;49.804;24.072;2024-01-11T11:17:52;46.63;;;20.52;;
35877;SDS011;21982;49.804;24.072;2024-01-11T11:20:18;38.40;;;20.13;;
35877;SDS011;21982;49.804;24.072;2024-01-11T11:22:48;34.05;;;17.42;;
35877;SDS011;21982;49.804;24.072;2024-01-11T11:25:31;36.63;;;19.65;;
35877;SDS011;21982;49.804;24.072;2024-01-11T11:27:58;42.27;;;17.73;;
35877;SDS011;21982;49.804;24.072;2024-01-11T11:30:29;35.83;;;19.38;;
35877;SDS011;21982;49.804;24.072;2024-01-11T11:32:55;39.20;;;19.00;;
35877;SDS011;21982;49.804;24.072;2024-01-11T11:35:24;38.33;;;18.57;;
35877;SDS011;21982;49.804;24.072;2024-01-11T11:37:53;32.30;;;17.03;;
35877;SDS011;21982;49.804;24.072;2024-01-11T11:40:21;36.10;;;17.67;;
35877;SDS011;21982;49.804;24.072;2024-01-11T11:42:47;36.67;;;18.87;;
35877;SDS011;21982;49.804;24.072;2024-01-11T11:45:23;37.90;;;16.67;;
35877;SDS011;21982;49.804;24.072;2024-01-11T11:47:50;37.33;;;17.53;;
35877;SDS011;21982;49.804;24.072;2024-01-11T11:50:16;38.30;;;19.23;;
35877;SDS011;21982;49.804;24.072;2024-01-11T11:52:43;45.67;;;22.47;;
35877;SDS011;21982;49.804;24.072;2024-01-11T11:55:10;43.63;;;20.90;;
35877;SDS011;21982;49.804;24.072;2024-01-11T11:57:38;39.57;;;21.20;;
35877;SDS011;21982;49.804;24.072;2024-01-11T12:00:08;38.40;;;21.13;;
35877;SDS011;21982;49.804;24.072;2024-01-11T12:02:34;48.30;;;21.10;;
35877;SDS011;21982;49.804;24.072;2024-01-11T12:05:01;34.00;;;17.92;;
35877;SDS011;21982;49.804;24.072;2024-01-11T12:07:27;42.93;;;21.20;;
35877;SDS011;21982;49.804;24.072;2024-01-11T12:09:53;41.83;;;19.23;;
35877;SDS011;21982;49.804;24.072;2024-01-11T12:12:18;36.07;;;18.73;;
35877;SDS011;21982;49.804;24.072;2024-01-11T12:14:47;34.27;;;17.37;;
35877;SDS011;21982;49.804;24.072;2024-01-11T12:17:13;48.17;;;23.63;;
35877;SDS011;21982;49.804;24.072;2024-01-11T12:19:39;38.90;;;18.27;;
35877;SDS011;21982;49.804;24.072;2024-01-11T12:22:04;39.47;;;19.73;;
35877;SDS011;21982;49.804;24.072;2024-01-11T12:24:30;39.73;;;20.20;;
35877;SDS011;21982;49.804;24.072;2024-01-11T12:26:56;42.93;;;20.40;;
35877;SDS011;21982;49.804;24.072;2024-01-11T12:29:22;38.00;;;17.97;;
35877;SDS011;21982;49.804;24.072;2024-01-11T12:31:48;40.50;;;18.37;;
35877;SDS011;21982;49.804;24.072;2024-01-11T12:34:15;43.30;;;20.77;;
35877;SDS011;21982;49.804;24.072;2024-01-11T12:36:41;45.83;;;21.07;;
35877;SDS011;21982;49.804;24.072;2024-01-11T12:39:07;50.03;;;24.20;;
35877;SDS011;21982;49.804;24.072;2024-01-11T12:41:34;45.67;;;21.47;;
35877;SDS011;21982;49.804;24.072;2024-01-11T12:44:00;34.27;;;18.23;;
35877;SDS011;21982;49.804;24.072;2024-01-11T12:46:26;39.03;;;19.20;;
35877;SDS011;21982;49.804;24.072;2024-01-11T12:48:52;40.07;;;20.23;;
35877;SDS011;21982;49.804;24.072;2024-01-11T12:51:18;39.53;;;20.37;;
35877;SDS011;21982;49.804;24.072;2024-01-11T12:53:46;44.20;;;22.07;;
35877;SDS011;21982;49.804;24.072;2024-01-11T12:56:14;46.40;;;22.07;;
35877;SDS011;21982;49.804;24.072;2024-01-11T12:58:40;40.07;;;22.40;;
35877;SDS011;21982;49.804;24.072;2024-01-11T13:01:07;39.13;;;20.17;;
35877;SDS011;21982;49.804;24.072;2024-01-11T13:03:34;47.30;;;21.97;;
35877;SDS011;21982;49.804;24.072;2024-01-11T13:06:01;43.93;;;22.60;;
35877;SDS011;21982;49.804;24.072;2024-01-11T13:08:27;43.63;;;22.23;;
35877;SDS011;21982;49.804;24.072;2024-01-11T13:10:53;43.37;;;21.67;;
35877;SDS011;21982;49.804;24.072;2024-01-11T13:13:19;41.03;;;19.40;;
35877;SDS011;21982;49.804;24.072;2024-01-11T13:15:44;50.07;;;23.23;;
35877;SDS011;21982;49.804;24.072;2024-01-11T13:20:46;42.30;;;22.83;;
35877;SDS011;21982;49.804;24.072;2024-01-11T13:23:19;49.07;;;22.47;;
35877;SDS011;21982;49.804;24.072;2024-01-11T13:25:46;48.80;;;22.40;;
35877;SDS011;21982;49.804;24.072;2024-01-11T13:28:13;52.50;;;23.67;;
35877;SDS011;21982;49.804;24.072;2024-01-11T13:30:39;42.33;;;22.00;;
35877;SDS011;21982;49.804;24.072;2024-01-11T13:33:05;54.67;;;25.23;;
35877;SDS011;21982;49.804;24.072;2024-01-11T13:35:33;44.97;;;24.13;;
35877;SDS011;21982;49.804;24.072;2024-01-11T13:37:59;55.40;;;26.73;;
35877;SDS011;21982;49.804;24.072;2024-01-11T13:40:25;47.17;;;21.90;;
35877;SDS011;21982;49.804;24.072;2024-01-11T13:42:54;40.20;;;21.73;;
35877;SDS011;21982;49.804;24.072;2024-01-11T13:45:26;42.73;;;21.90;;
35877;SDS011;21982;49.804;24.072;2024-01-11T13:47:53;48.00;;;22.20;;
35877;SDS011;21982;49.804;24.072;2024-01-11T13:50:20;48.60;;;22.57;;
35877;SDS011;21982;49.804;24.072;2024-01-11T13:52:46;48.60;;;25.37;;
35877;SDS011;21982;49.804;24.072;2024-01-11T13:55:12;52.73;;;26.33;;
35877;SDS011;21982;49.804;24.072;2024-01-11T13:57:38;51.60;;;25.83;;
35877;SDS011;21982;49.804;24.072;2024-01-11T14:00:07;43.63;;;24.17;;
35877;SDS011;21982;49.804;24.072;2024-01-11T14:02:36;52.07;;;25.77;;
35877;SDS011;21982;49.804;24.072;2024-01-11T14:05:02;54.57;;;26.57;;
35877;SDS011;21982;49.804;24.072;2024-01-11T14:07:29;47.40;;;23.43;;
35877;SDS011;21982;49.804;24.072;2024-01-11T14:09:55;50.57;;;25.57;;
35877;SDS011;21982;49.804;24.072;2024-01-11T14:12:21;52.80;;;28.10;;
35877;SDS011;21982;49.804;24.072;2024-01-11T14:14:46;47.67;;;25.80;;